createdAt,value
2023-04-25T00:01:14.006Z,89.21
2023-04-25T00:03:41.183Z,89.35
2023-04-25T00:06:10.956Z,89.89
2023-04-25T00:08:37.476Z,89.59
2023-04-25T00:11:04.242Z,89.65
2023-04-25T00:13:30.819Z,89.70
2023-04-25T00:15:57.586Z,89.44
2023-04-25T00:18:35.903Z,89.47
2023-04-25T00:21:02.453Z,90.04
2023-04-25T00:23:28.921Z,90.62
2023-04-25T00:25:55.437Z,90.97
2023-04-25T00:28:27.833Z,91.11
2023-04-25T00:30:57.734Z,90.89
2023-04-25T00:33:27.480Z,91.14
2023-04-25T00:35:57.922Z,90.83
2023-04-25T00:38:27.185Z,90.92
2023-04-25T00:40:57.894Z,90.87
2023-04-25T00:43:27.261Z,91.02
2023-04-25T00:45:54.357Z,90.95
2023-04-25T00:48:23.961Z,91.27
2023-04-25T00:50:57.936Z,91.15
2023-04-25T00:53:27.902Z,91.24
2023-04-25T00:55:55.333Z,91.06
2023-04-25T00:58:22.989Z,90.93
2023-04-25T01:00:53.434Z,91.38
2023-04-25T01:03:21.330Z,91.07
2023-04-25T01:05:50.559Z,91.36
2023-04-25T01:08:17.277Z,91.10
2023-04-25T01:10:43.821Z,91.16
2023-04-25T01:13:10.531Z,91.46
2023-04-25T01:15:37.170Z,91.52
2023-04-25T01:18:05.181Z,91.77
2023-04-25T01:20:34.589Z,91.50
2023-04-25T01:23:03.183Z,91.60
2023-04-25T01:25:33.698Z,91.81
2023-04-25T01:28:03.350Z,92.04
2023-04-25T01:30:30.561Z,92.24
2023-04-25T01:32:57.788Z,92.21
2023-04-25T01:35:27.758Z,92.56
2023-04-25T01:37:54.448Z,92.93
2023-04-25T01:40:22.109Z,92.96
2023-04-25T01:42:49.346Z,93.02
2023-04-25T01:45:16.003Z,93.03
2023-04-25T01:47:44.752Z,93.21
2023-04-25T01:50:12.259Z,92.94
2023-04-25T01:52:39.080Z,93.38
2023-04-25T01:55:07.183Z,93.58
2023-04-25T01:57:33.870Z,94.06
2023-04-25T02:00:03.777Z,93.90
2023-04-25T02:02:30.540Z,94.22
2023-04-25T02:04:57.152Z,94.40
2023-04-25T02:07:23.636Z,94.22
2023-04-25T02:09:50.237Z,94.35
2023-04-25T02:12:16.707Z,94.40
2023-04-25T02:14:43.214Z,94.81
2023-04-25T02:17:09.769Z,94.88
2023-04-25T02:19:36.412Z,95.53
2023-04-25T02:22:02.954Z,95.62
2023-04-25T02:24:29.500Z,95.44
2023-04-25T02:26:57.005Z,95.69
2023-04-25T02:29:24.344Z,95.34
2023-04-25T02:31:51.217Z,95.72
2023-04-25T02:34:18.045Z,95.42
2023-04-25T02:36:44.603Z,95.42
2023-04-25T02:39:11.709Z,95.14
2023-04-25T02:41:38.309Z,95.37
2023-04-25T02:44:04.915Z,95.50
2023-04-25T02:46:38.920Z,95.26
2023-04-25T02:49:07.186Z,95.35
2023-04-25T02:51:33.787Z,95.96
2023-04-25T02:54:00.332Z,95.81
2023-04-25T02:56:27.243Z,96.12
2023-04-25T02:58:54.712Z,96.35
2023-04-25T03:01:21.554Z,96.11
2023-04-25T03:03:48.359Z,96.22
2023-04-25T03:06:16.476Z,96.75
2023-04-25T03:08:43.036Z,97.05
2023-04-25T03:11:09.619Z,96.99
2023-04-25T03:13:36.180Z,97.10
2023-04-25T03:16:02.720Z,97.30
2023-04-25T03:18:29.243Z,97.29
2023-04-25T03:20:55.802Z,97.79
2023-04-25T03:23:22.342Z,97.82
2023-04-25T03:25:48.884Z,97.96
2023-04-25T03:28:15.524Z,98.39
2023-04-25T03:30:42.018Z,99.01
2023-04-25T03:33:08.481Z,99.27
2023-04-25T03:35:38.377Z,99.45
2023-04-25T03:38:04.845Z,99.92
2023-04-25T03:40:31.881Z,100.00
2023-04-25T03:42:58.301Z,100.00
2023-04-25T03:45:24.813Z,100.00
2023-04-25T03:47:51.353Z,100.00
2023-04-25T03:50:17.918Z,100.00
2023-04-25T03:52:44.809Z,100.00
2023-04-25T03:55:11.499Z,100.00
2023-04-25T03:57:37.998Z,100.00
2023-04-25T04:00:05.569Z,100.00
2023-04-25T04:02:32.380Z,100.00
2023-04-25T04:04:59.355Z,100.00
2023-04-25T04:07:25.984Z,100.00
2023-04-25T04:09:52.485Z,100.00
2023-04-25T04:12:19.013Z,100.00
2023-04-25T04:14:47.317Z,100.00
2023-04-25T04:17:13.771Z,100.00
2023-04-25T04:19:40.230Z,100.00
2023-04-25T04:22:06.724Z,100.00
2023-04-25T04:24:33.692Z,100.00
2023-04-25T04:27:00.187Z,100.00
2023-04-25T04:29:26.687Z,100.00
2023-04-25T04:31:56.155Z,100.00
2023-04-25T04:34:22.702Z,100.00
2023-04-25T04:36:49.598Z,100.00
2023-04-25T04:39:16.200Z,100.00
2023-04-25T04:41:43.879Z,100.00
2023-04-25T04:44:11.037Z,100.00
2023-04-25T04:46:43.105Z,100.00
2023-04-25T04:49:10.712Z,100.00
2023-04-25T04:51:38.263Z,100.00
2023-04-25T04:54:05.118Z,100.00
2023-04-25T04:56:32.297Z,100.00
2023-04-25T04:59:01.996Z,100.00
2023-04-25T05:01:28.857Z,100.00
2023-04-25T05:03:56.083Z,100.00
2023-04-25T05:06:22.904Z,100.00
2023-04-25T05:08:50.087Z,100.00
2023-04-25T05:11:16.667Z,100.00
2023-04-25T05:13:43.086Z,100.00
2023-04-25T05:16:12.521Z,100.00
2023-04-25T05:18:40.140Z,100.00
2023-04-25T05:21:07.050Z,100.00
2023-04-25T05:23:34.177Z,100.00
2023-04-25T05:26:01.172Z,100.00
2023-04-25T05:28:27.603Z,100.00
2023-04-25T05:30:54.199Z,100.00
2023-04-25T05:33:20.963Z,100.00
2023-04-25T05:35:47.960Z,100.00
2023-04-25T05:38:14.477Z,100.00
2023-04-25T05:40:41.025Z,100.00
2023-04-25T05:43:08.193Z,100.00
2023-04-25T05:45:34.778Z,100.00
2023-04-25T05:48:01.410Z,100.00
2023-04-25T05:50:27.973Z,100.00
2023-04-25T05:52:54.436Z,100.00
2023-04-25T05:55:20.922Z,100.00
2023-04-25T05:57:47.737Z,100.00
2023-04-25T06:00:18.693Z,100.00
2023-04-25T06:02:45.378Z,100.00
2023-04-25T06:05:12.117Z,100.00
2023-04-25T06:07:38.784Z,100.00
2023-04-25T06:10:07.368Z,100.00
2023-04-25T06:12:34.393Z,100.00
2023-04-25T06:15:02.098Z,100.00
2023-04-25T06:17:28.807Z,100.00
2023-04-25T06:19:55.256Z,100.00
2023-04-25T06:22:22.086Z,100.00
2023-04-25T06:24:48.602Z,100.00
2023-04-25T06:27:16.976Z,100.00
2023-04-25T06:29:43.649Z,100.00
2023-04-25T06:32:10.498Z,100.00
2023-04-25T06:34:37.028Z,100.00
2023-04-25T06:37:03.556Z,100.00
2023-04-25T06:39:30.116Z,100.00
2023-04-25T06:41:56.550Z,100.00
2023-04-25T06:44:25.073Z,100.00
2023-04-25T06:46:51.683Z,100.00
2023-04-25T06:49:18.335Z,100.00
2023-04-25T06:51:44.826Z,100.00
2023-04-25T06:54:11.448Z,100.00
2023-04-25T06:56:43.894Z,100.00
2023-04-25T06:59:10.520Z,100.00
2023-04-25T07:01:38.921Z,100.00
2023-04-25T07:04:06.191Z,100.00
2023-04-25T07:06:33.047Z,100.00
2023-04-25T07:08:59.539Z,100.00
2023-04-25T07:11:26.057Z,100.00
2023-04-25T07:13:52.596Z,100.00
2023-04-25T07:16:19.159Z,100.00
2023-04-25T07:18:45.827Z,100.00
2023-04-25T07:21:12.290Z,100.00
2023-04-25T07:23:41.656Z,100.00
2023-04-25T07:26:08.715Z,100.00
2023-04-25T07:28:35.290Z,100.00
2023-04-25T07:31:01.748Z,100.00
2023-04-25T07:33:28.309Z,100.00
2023-04-25T07:35:57.855Z,100.00
2023-04-25T07:38:24.402Z,99.75
2023-04-25T07:40:51.116Z,98.80
2023-04-25T07:43:17.932Z,98.26
2023-04-25T07:45:45.805Z,98.34
2023-04-25T07:48:12.363Z,96.23
2023-04-25T07:50:38.890Z,96.63
2023-04-25T07:53:05.348Z,96.79
2023-04-25T07:55:31.842Z,94.46
2023-04-25T07:58:01.565Z,92.42
2023-04-25T08:00:28.722Z,93.71
2023-04-25T08:02:55.316Z,92.73
2023-04-25T08:05:23.129Z,90.98
2023-04-25T08:07:50.722Z,88.20
2023-04-25T08:10:20.382Z,86.71
2023-04-25T08:12:50.122Z,85.11
2023-04-25T08:15:16.640Z,85.80
2023-04-25T08:17:44.832Z,86.68
2023-04-25T08:20:12.351Z,83.61
2023-04-25T08:22:38.823Z,83.99
2023-04-25T08:25:05.838Z,85.17
2023-04-25T08:27:32.281Z,84.10
2023-04-25T08:29:59.712Z,84.24
2023-04-25T08:32:26.671Z,84.25
2023-04-25T08:34:56.301Z,85.17
2023-04-25T08:37:23.065Z,85.78
2023-04-25T08:39:49.839Z,85.90
2023-04-25T08:42:16.707Z,82.78
2023-04-25T08:44:43.343Z,78.94
2023-04-25T08:47:09.889Z,77.66
2023-04-25T08:49:37.050Z,75.66
2023-04-25T08:52:07.300Z,77.84
2023-04-25T08:54:35.295Z,79.03
2023-04-25T08:57:04.826Z,76.24
2023-04-25T08:59:32.346Z,76.57
2023-04-25T09:01:59.144Z,75.96
2023-04-25T09:04:25.756Z,76.76
2023-04-25T09:06:52.393Z,72.50
2023-04-25T09:09:19.130Z,72.80
2023-04-25T09:11:45.749Z,73.01
2023-04-25T09:14:18.228Z,71.36
2023-04-25T09:16:56.894Z,71.64
2023-04-25T09:19:40.448Z,70.01
2023-04-25T09:22:08.485Z,71.64
2023-04-25T09:24:39.009Z,72.85
2023-04-25T09:27:10.672Z,70.87
2023-04-25T09:29:39.428Z,71.99
2023-04-25T09:32:13.997Z,71.20
2023-04-25T09:34:42.885Z,71.22
2023-04-25T09:37:13.057Z,71.89
2023-04-25T09:39:40.033Z,70.42
2023-04-25T09:42:06.972Z,70.70
2023-04-25T09:44:33.581Z,68.63
2023-04-25T09:47:00.232Z,67.35
2023-04-25T09:49:28.896Z,68.12
2023-04-25T09:51:59.656Z,66.80
2023-04-25T09:54:27.185Z,66.11
2023-04-25T09:56:54.725Z,66.08
2023-04-25T09:59:23.714Z,64.23
2023-04-25T10:01:53.630Z,64.58
2023-04-25T10:04:25.515Z,63.38
2023-04-25T10:06:53.328Z,63.15
2023-04-25T10:09:27.200Z,62.59
2023-04-25T10:11:54.185Z,62.34
2023-04-25T10:14:20.738Z,63.19
2023-04-25T10:16:48.722Z,62.41
2023-04-25T10:19:16.531Z,62.32
2023-04-25T10:22:24.521Z,63.48
2023-04-25T10:24:51.858Z,64.25
2023-04-25T10:27:19.209Z,62.20
2023-04-25T10:29:45.700Z,60.63
2023-04-25T10:32:12.362Z,61.58
2023-04-25T10:34:40.724Z,62.87
2023-04-25T10:37:10.198Z,64.53
2023-04-25T10:39:37.535Z,61.86
2023-04-25T10:42:04.071Z,62.23
2023-04-25T10:44:32.662Z,63.75
2023-04-25T10:47:01.659Z,63.38
2023-04-25T10:49:36.546Z,63.54
2023-04-25T10:52:25.688Z,64.73
2023-04-25T10:54:58.951Z,64.36
2023-04-25T10:57:43.270Z,66.42
2023-04-25T11:00:12.168Z,66.11
2023-04-25T11:02:46.771Z,66.00
2023-04-25T11:08:38.395Z,64.61
2023-04-25T11:11:05.163Z,64.73
2023-04-25T11:13:31.659Z,66.58
2023-04-25T11:16:07.151Z,66.26
2023-04-25T11:18:42.768Z,65.36
2023-04-25T11:21:10.662Z,66.70
2023-04-25T11:23:37.705Z,64.47
2023-04-25T11:26:05.109Z,65.06
2023-04-25T11:28:31.639Z,63.22
2023-04-25T11:30:58.311Z,62.81
2023-04-25T11:33:26.178Z,62.41
2023-04-25T11:35:57.391Z,63.07
2023-04-25T11:38:27.199Z,60.21
2023-04-25T11:40:54.326Z,59.59
2023-04-25T11:43:22.709Z,58.08
2023-04-25T11:45:51.546Z,58.07
2023-04-25T11:48:19.491Z,58.46
2023-04-25T11:50:48.334Z,56.91
2023-04-25T11:53:14.825Z,58.67
2023-04-25T11:55:41.353Z,58.45
2023-04-25T11:58:09.568Z,59.91
2023-04-25T12:00:36.066Z,60.08
2023-04-25T12:03:05.065Z,60.09
2023-04-25T12:05:35.022Z,61.63
2023-04-25T12:08:15.377Z,58.16
2023-04-25T12:10:44.060Z,56.78
2023-04-25T12:13:21.823Z,58.44
2023-04-25T12:15:48.649Z,55.72
2023-04-25T12:18:15.771Z,53.38
2023-04-25T12:20:43.171Z,53.11
2023-04-25T12:23:09.752Z,53.45
2023-04-25T12:25:41.316Z,53.54
2023-04-25T12:28:15.117Z,53.42
2023-04-25T12:31:01.607Z,51.59
2023-04-25T12:33:36.382Z,52.20
2023-04-25T12:36:12.698Z,55.92
2023-04-25T12:38:41.282Z,58.50
2023-04-25T12:41:08.699Z,58.15
2023-04-25T12:43:35.655Z,58.32
2023-04-25T12:46:02.373Z,60.24
2023-04-25T12:48:32.539Z,61.08
2023-04-25T12:50:59.073Z,59.09
2023-04-25T12:53:25.676Z,60.02
2023-04-25T12:55:52.299Z,60.97
2023-04-25T12:58:19.917Z,61.24
2023-04-25T13:00:47.790Z,60.01
2023-04-25T13:03:14.455Z,61.07
2023-04-25T13:05:42.152Z,61.47
2023-04-25T13:08:08.974Z,62.02
2023-04-25T13:10:37.011Z,62.04
2023-04-25T13:13:03.678Z,62.41
2023-04-25T13:15:30.396Z,64.28
2023-04-25T13:17:57.210Z,64.67
2023-04-25T13:20:23.943Z,65.52
2023-04-25T13:22:50.885Z,66.15
2023-04-25T13:25:20.916Z,67.27
2023-04-25T13:27:47.443Z,67.59
2023-04-25T13:30:14.288Z,68.33
2023-04-25T13:32:41.066Z,66.99
2023-04-25T13:35:10.771Z,65.39
2023-04-25T13:37:38.655Z,62.67
2023-04-25T13:40:11.038Z,62.76
2023-04-25T13:42:39.397Z,59.28
2023-04-25T13:45:06.534Z,58.09
2023-04-25T13:47:33.058Z,58.46
2023-04-25T13:50:00.336Z,59.79
2023-04-25T13:52:26.933Z,60.31
2023-04-25T13:54:53.575Z,59.75
2023-04-25T13:57:20.682Z,60.56
2023-04-25T13:59:47.673Z,62.02
2023-04-25T14:02:17.397Z,63.17
2023-04-25T14:04:43.979Z,63.06
2023-04-25T14:07:11.959Z,61.40
2023-04-25T14:09:38.413Z,63.58
2023-04-25T14:12:04.994Z,62.66
2023-04-25T14:14:31.474Z,63.34
2023-04-25T14:16:58.279Z,62.39
2023-04-25T14:19:25.576Z,62.73
2023-04-25T14:21:55.232Z,63.95
2023-04-25T14:24:21.796Z,62.93
2023-04-25T14:26:48.460Z,62.09
2023-04-25T14:29:14.968Z,62.86
2023-04-25T14:31:41.960Z,61.88
2023-04-25T14:34:09.331Z,62.42
2023-04-25T14:36:37.232Z,63.20
2023-04-25T14:39:06.084Z,64.41
2023-04-25T14:41:32.881Z,64.87
2023-04-25T14:43:59.327Z,65.12
2023-04-25T14:46:26.508Z,64.74
2023-04-25T14:48:53.232Z,65.96
2023-04-25T14:51:19.746Z,66.66
2023-04-25T14:53:46.257Z,67.62
2023-04-25T14:56:13.465Z,68.33
2023-04-25T14:58:43.308Z,68.45
2023-04-25T15:01:09.838Z,68.63
2023-04-25T15:03:36.521Z,67.96
2023-04-25T15:06:03.290Z,68.61
2023-04-25T15:08:29.811Z,68.53
2023-04-25T15:10:56.290Z,67.60
2023-04-25T15:13:22.967Z,66.40
2023-04-25T15:15:52.197Z,65.48
2023-04-25T15:18:23.129Z,66.08
2023-04-25T15:20:50.948Z,65.35
2023-04-25T15:23:18.928Z,63.86
2023-04-25T15:25:46.360Z,63.02
2023-04-25T15:28:15.943Z,63.39
2023-04-25T15:30:43.274Z,64.31
2023-04-25T15:33:09.889Z,65.09
2023-04-25T15:35:39.385Z,66.21
2023-04-25T15:38:06.537Z,66.58
2023-04-25T15:40:33.225Z,67.40
2023-04-25T15:43:00.567Z,69.71
2023-04-25T15:45:27.270Z,76.68
2023-04-25T15:47:55.843Z,83.92
2023-04-25T15:50:22.944Z,87.27
2023-04-25T15:52:50.928Z,89.97
2023-04-25T15:55:18.817Z,91.13
2023-04-25T15:57:45.452Z,91.94
2023-04-25T16:00:15.480Z,91.81
2023-04-25T16:02:43.634Z,92.29
2023-04-25T16:05:11.696Z,93.35
2023-04-25T16:07:39.557Z,93.47
2023-04-25T16:10:07.505Z,93.93
2023-04-25T16:12:34.232Z,93.35
2023-04-25T16:15:01.012Z,94.08
2023-04-25T16:17:30.437Z,94.40
2023-04-25T16:19:58.026Z,93.92
2023-04-25T16:22:24.943Z,93.57
2023-04-25T16:24:51.475Z,93.54
2023-04-25T16:27:17.930Z,93.33
2023-04-25T16:29:44.462Z,91.90
2023-04-25T16:32:10.999Z,91.12
2023-04-25T16:34:37.510Z,89.66
2023-04-25T16:37:04.543Z,86.26
2023-04-25T16:39:31.030Z,83.47
2023-04-25T16:41:57.492Z,82.13
2023-04-25T16:44:24.114Z,82.09
2023-04-25T16:46:50.712Z,80.25
2023-04-25T16:49:20.151Z,80.07
2023-04-25T16:51:47.019Z,80.61
2023-04-25T16:54:13.485Z,81.50
2023-04-25T16:56:39.945Z,80.86
2023-04-25T16:59:06.907Z,80.68
2023-04-25T17:01:33.454Z,81.52
2023-04-25T17:04:00.648Z,81.20
2023-04-25T17:06:27.277Z,81.62
2023-04-25T17:08:54.034Z,81.06
2023-04-25T17:11:20.701Z,81.50
2023-04-25T17:13:47.215Z,81.12
2023-04-25T17:16:16.601Z,80.54
2023-04-25T17:18:46.495Z,80.44
2023-04-25T17:21:12.992Z,79.74
2023-04-25T17:23:44.842Z,79.29
2023-04-25T17:26:14.844Z,78.79
2023-04-25T17:28:42.181Z,77.99
2023-04-25T17:31:09.631Z,78.53
2023-04-25T17:33:36.531Z,80.49
2023-04-25T17:36:04.153Z,81.47
2023-04-25T17:38:31.557Z,85.52
2023-04-25T17:40:58.646Z,86.80
2023-04-25T17:43:28.056Z,86.87
2023-04-25T17:45:54.711Z,87.79
2023-04-25T17:48:22.826Z,88.37
2023-04-25T17:50:49.695Z,85.29
2023-04-25T17:53:16.220Z,84.96
2023-04-25T17:55:43.824Z,83.80
2023-04-25T17:58:15.584Z,82.63
2023-04-25T18:00:42.744Z,81.30
2023-04-25T18:03:09.411Z,78.27
2023-04-25T18:05:36.019Z,80.53
2023-04-25T18:08:02.554Z,80.22
2023-04-25T18:10:29.151Z,79.89
2023-04-25T18:12:55.675Z,78.32
2023-04-25T18:15:23.035Z,78.54
2023-04-25T18:17:49.665Z,78.63
2023-04-25T18:20:17.000Z,78.52
2023-04-25T18:22:45.011Z,79.47
2023-04-25T18:25:12.722Z,80.47
2023-04-25T18:27:40.593Z,80.35
2023-04-25T18:30:09.454Z,80.82
2023-04-25T18:32:36.620Z,81.77
2023-04-25T18:35:03.659Z,81.54
2023-04-25T18:37:31.393Z,81.69
2023-04-25T18:40:01.058Z,81.71
2023-04-25T18:42:27.988Z,82.75
2023-04-25T18:44:54.437Z,83.89
2023-04-25T18:47:21.144Z,85.24
2023-04-25T18:49:47.912Z,86.43
2023-04-25T18:52:15.999Z,87.79
2023-04-25T18:54:42.783Z,89.58
2023-04-25T18:57:09.482Z,91.50
2023-04-25T18:59:36.132Z,93.23
2023-04-25T19:02:04.310Z,92.97
2023-04-25T19:04:31.233Z,92.90
2023-04-25T19:06:58.001Z,92.83
2023-04-25T19:09:25.195Z,92.45
2023-04-25T19:11:51.742Z,92.53
2023-04-25T19:14:18.309Z,93.03
2023-04-25T19:16:44.855Z,92.62
2023-04-25T19:19:11.515Z,91.74
2023-04-25T19:21:38.317Z,92.04
2023-04-25T19:24:05.482Z,92.18
2023-04-25T19:26:32.026Z,92.85
2023-04-25T19:29:09.347Z,93.12
2023-04-25T19:31:38.134Z,92.70
2023-04-25T19:34:07.321Z,92.16
2023-04-25T19:36:34.634Z,92.53
2023-04-25T19:39:03.737Z,92.90
2023-04-25T19:41:33.273Z,93.24
2023-04-25T19:44:04.629Z,92.63
2023-04-25T19:46:34.059Z,92.02
2023-04-25T19:49:01.489Z,91.49
2023-04-25T19:51:31.589Z,90.92
2023-04-25T19:53:58.066Z,90.96
2023-04-25T19:56:24.797Z,90.56
2023-04-25T19:58:51.653Z,90.07
2023-04-25T20:01:22.014Z,89.96
2023-04-25T20:03:51.642Z,89.64
2023-04-25T20:06:18.850Z,89.17
2023-04-25T20:08:48.824Z,89.09
2023-04-25T20:11:15.964Z,88.85
2023-04-25T20:13:42.547Z,88.38
2023-04-25T20:16:11.815Z,88.44
2023-04-25T20:18:39.507Z,88.48
2023-04-25T20:21:06.220Z,88.64
2023-04-25T20:23:33.044Z,88.54
2023-04-25T20:25:59.540Z,88.25
2023-04-25T20:28:27.328Z,87.91
2023-04-25T20:30:53.903Z,87.78
2023-04-25T20:33:21.907Z,87.70
2023-04-25T20:35:49.092Z,87.83
2023-04-25T20:38:16.118Z,88.06
2023-04-25T20:40:42.597Z,88.14
2023-04-25T20:43:11.824Z,88.16
2023-04-25T20:45:42.722Z,88.57
2023-04-25T20:48:09.677Z,88.49
2023-04-25T20:50:36.673Z,88.21
2023-04-25T20:53:03.914Z,88.43
2023-04-25T20:55:30.909Z,87.77
2023-04-25T20:57:57.831Z,87.40
2023-04-25T21:00:27.424Z,87.70
2023-04-25T21:02:54.660Z,88.13
2023-04-25T21:05:24.730Z,88.54
2023-04-25T21:07:54.425Z,88.75
2023-04-25T21:10:21.304Z,89.05
2023-04-25T21:12:49.430Z,88.90
2023-04-25T21:15:22.505Z,88.62
2023-04-25T21:17:49.784Z,89.13
2023-04-25T21:20:20.856Z,89.45
2023-04-25T21:22:54.084Z,90.56
2023-04-25T21:25:30.066Z,91.27
2023-04-25T21:27:57.025Z,91.39
2023-04-25T21:30:24.956Z,91.66
2023-04-25T21:32:52.159Z,91.66
2023-04-25T21:35:20.147Z,91.85
2023-04-25T21:37:49.693Z,91.83
2023-04-25T21:40:19.654Z,91.12
2023-04-25T21:42:53.397Z,91.16
2023-04-25T21:45:23.582Z,91.41
2023-04-25T21:47:50.850Z,91.23
2023-04-25T21:50:18.107Z,91.56
2023-04-25T21:52:44.626Z,92.05
2023-04-25T21:55:18.760Z,92.66
2023-04-25T21:57:47.964Z,93.04
2023-04-25T22:00:29.120Z,93.85
2023-04-25T22:02:55.740Z,94.11
2023-04-25T22:05:23.908Z,94.70
2023-04-25T22:07:51.713Z,95.17
2023-04-25T22:10:18.533Z,95.02
2023-04-25T22:12:45.447Z,95.20
2023-04-25T22:15:25.839Z,95.51
2023-04-25T22:17:57.513Z,95.41
2023-04-25T22:20:27.916Z,95.41
2023-04-25T22:22:56.396Z,95.36
2023-04-25T22:25:23.908Z,95.76
2023-04-25T22:27:51.379Z,96.17
2023-04-25T22:30:18.478Z,96.05
2023-04-25T22:32:45.019Z,96.03
2023-04-25T22:35:14.959Z,95.06
2023-04-25T22:37:44.837Z,94.17
2023-04-25T22:40:12.087Z,93.41
2023-04-25T22:42:45.584Z,93.06
2023-04-25T22:45:12.344Z,92.37
2023-04-25T22:47:39.841Z,91.85
2023-04-25T22:50:07.982Z,92.14
2023-04-25T22:52:35.006Z,92.66
2023-04-25T22:55:03.004Z,92.50
2023-04-25T22:57:30.012Z,92.61
2023-04-25T22:59:56.954Z,92.47
2023-04-25T23:02:27.453Z,92.13
2023-04-25T23:04:54.884Z,91.89
2023-04-25T23:07:23.600Z,91.78
2023-04-25T23:09:50.132Z,92.20
2023-04-25T23:12:19.623Z,91.92
2023-04-25T23:14:52.702Z,92.08
2023-04-25T23:17:20.386Z,92.03
2023-04-25T23:19:46.874Z,92.02
2023-04-25T23:22:13.335Z,91.87
2023-04-25T23:24:40.374Z,92.04
2023-04-25T23:27:10.540Z,92.32
2023-04-25T23:29:37.217Z,92.18
2023-04-25T23:32:04.234Z,91.95
2023-04-25T23:34:31.623Z,92.20
2023-04-25T23:37:01.113Z,92.42
2023-04-25T23:39:28.149Z,92.48
2023-04-25T23:41:54.616Z,92.64
2023-04-25T23:44:26.086Z,93.36
2023-04-25T23:46:55.677Z,93.36
2023-04-25T23:49:22.635Z,92.77
2023-04-25T23:51:52.312Z,93.30
2023-04-25T23:54:18.849Z,93.34
2023-04-25T23:56:48.633Z,93.34
2023-04-25T23:59:17.966Z,92.85
